Don Mueang International Airport
VTBD : now visible

Airfield :











YOU CAN JOIN US ON...

 
LOGIN :

Register | Disclaimer

   EN    FR    IT 

 









Legend :    VFR   Marginal VFR   IFR   Intensive IFR   Very Intensive IFR
Visi :
Ceiling :
>= 8 km
>= 3000ft
5 to 8 km
1000 to 3000 ft
1500m to 5 km
500 to 1000 ft
800 to 1500m
200 to 500 ft
< 800m
< 200 ft
Symbols :   Thunderstorms  Fog  Heavy snow  Heavy precipitations  Wind > 20 kt






- Airport Elevation : 9 ft
- IATA code : DMK


VTBD - Don Mueang International

CURRENT METAR :
  • 261400Z 17010KT 9000 -RA FEW020 SCT035 26/23 Q1008 NOSIG

EXPIRED METARs :
  • 261330Z 18012KT 9000 -RA FEW020 SCT035 26/23 Q1008 NOSIG
  • 261300Z 21016KT 7000 -RA FEW020CB SCT035 26/23 Q1009 WS ALL RWY NOSIG
  • 261230Z 23016KT 9999 -RA FEW020CB SCT035 27/23 Q1009 WS ALL RWY TEMPO FM1240 TL1340 4000 TSRA
  • 261200Z 26022KT 9999 FEW020CB SCT035 31/23 Q1007 WS ALL RWY TEMPO FM1210 TL1310 4000 TSRA
  • 261130Z 19009KT 9999 FEW020 32/24 Q1006 NOSIG
  • 261100Z 19008KT 9999 FEW020 32/25 Q1006 NOSIG
  • 261030Z 18010KT 9999 FEW020 33/24 Q1006 NOSIG
  • 261000Z 18010KT 9999 FEW020 33/24 Q1005 NOSIG
  • 260930Z 19011KT 9999 FEW020 34/25 Q1006 NOSIG

TAF TAF VTBD
Valid from the 26 at 12:00 until the 27 at 18:00 UTC


261100Z 2612/2718 18008KT 9999 SCT020
TEMPO 2612/2615 VRB15KT 4000 TSRA FEW018CB SCT030
VTBB FIR / Asia



MET'MAP, your aeronautical weather chart ! - Copyright ORBIFLY December 2007 - Disclaimer

ORBIFLY MET'MAP TEAM :

Programming & Development : Alexandra Zaïnal
Original concept : Baudouin d'Aumeries
Technical & hardware support : Manuel Goepfert
Assistance : Marc-Olivier Méhu




SOURCES & CREDITS :

   NOAA       Earth
Advisory